Bookmark and Share
Track history (hours):
 

CSCL Fuzhou

Last reported at 2014-Mar-22 00:25 UTC. Time now 2014-Apr-18 00:28 UTC.
Position N 01°17' E 103°57'.
Warning: this ship's position is 27 days out of date.

Length 207.4 m; beam 29.8 m; draft 11.4 m.

Type: Cargo ship. MMSI: 636090405.

NotesDate/timePositionNaut miles runAvg speedWind from/ knotsBaromVisibWave heightAir tempDewpointWater temp
2014-Mar-22 00:25N 01°17' E 103°57'0 0.0
2014-Mar-21 22:31N 01°17' E 103°57'0 0.0
2014-Mar-21 21:25N 01°17' E 103°57'0 0.0
2014-Mar-19 23:25N 01°17' E 103°57'0 0.0
2014-Mar-19 22:16N 01°17' E 103°57'0 0.0
2014-Mar-19 20:13N 01°17' E 103°57'0 0.0
2014-Mar-18 21:22N 01°17' E 103°57'0 0.0
2014-Mar-18 20:31N 01°17' E 103°57'  
2014-Mar-14 05:04N 01°17' E 103°57'3 0.1
2014-Mar-12 20:26N 01°15' E 103°56'6 7.0
2014-Mar-12 19:33N 01°12' E 103°50'1 0.9
2014-Mar-12 18:25N 01°13' E 103°49'0 0.4
2014-Mar-12 17:33N 01°13' E 103°50'4 3.5
2014-Mar-12 16:29N 01°13' E 103°53'1 1.3
2014-Mar-12 15:33N 01°12' E 103°53'6 6.2
2014-Mar-12 14:33N 01°10' E 103°47'7 6.7
2014-Mar-12 13:32N 01°04' E 103°43'5 5.1
2014-Mar-12 12:34N 01°03' E 103°38'1010.1
2014-Mar-12 11:33N 01°09' E 103°30'1212.5
2014-Mar-12 10:33N 01°21' E 103°33'0 0.2
2014-Mar-12 09:33N 01°22' E 103°33'0 0.0
2014-Mar-12 08:33N 01°22' E 103°33'0 0.0
2014-Mar-12 07:33N 01°22' E 103°33'0 0.0
2014-Mar-12 06:33N 01°22' E 103°33'0 0.0
2014-Mar-12 05:27N 01°22' E 103°33'0 0.0
2014-Mar-12 04:33N 01°22' E 103°33'0 0.3
2014-Mar-12 03:33N 01°21' E 103°33'10 9.6
2014-Mar-12 02:33N 01°12' E 103°31'3 2.8
2014-Mar-12 01:33N 01°10' E 103°29'0 0.3
2014-Mar-12 00:32N 01°10' E 103°29'  

Dump ship's entire track history

sailing weather and tide predictions

CSCL Fuzhou — ELYA7 — position and weather